createdAt,value
2018-03-26T00:01:14.958Z,154.35
2018-03-26T00:03:44.047Z,122.65
2018-03-26T00:06:13.271Z,127.62
2018-03-26T00:08:42.433Z,103.32
2018-03-26T00:11:11.567Z,113.07
2018-03-26T00:13:40.765Z,126.57
2018-03-26T00:16:10.025Z,127.68
2018-03-26T00:18:39.074Z,111.07
2018-03-26T00:21:08.460Z,120.82
2018-03-26T00:23:37.468Z,120.45
2018-03-26T00:26:06.447Z,121.53
2018-03-26T00:28:35.445Z,113.60
2018-03-26T00:31:04.702Z,106.65
2018-03-26T00:33:33.842Z,97.72
2018-03-26T00:36:02.998Z,79.90
2018-03-26T00:38:32.161Z,81.97
2018-03-26T00:41:01.111Z,77.87
2018-03-26T00:43:30.177Z,76.47
2018-03-26T00:45:59.336Z,69.57
2018-03-26T00:48:28.480Z,71.00
2018-03-26T00:50:57.641Z,81.50
2018-03-26T00:53:38.000Z,74.60
2018-03-26T00:56:06.965Z,72.05
2018-03-26T00:58:36.131Z,79.50
2018-03-26T01:01:05.322Z,87.18
2018-03-26T01:03:34.425Z,94.53
2018-03-26T01:06:03.449Z,92.72
2018-03-26T01:08:32.713Z,103.62
2018-03-26T01:11:01.853Z,88.93
2018-03-26T01:13:31.053Z,89.95
2018-03-26T01:16:00.211Z,87.57
2018-03-26T01:18:29.308Z,78.15
2018-03-26T01:20:58.443Z,81.43
2018-03-26T01:23:28.282Z,78.87
2018-03-26T01:25:57.445Z,79.10
2018-03-26T01:28:26.727Z,75.40
2018-03-26T01:30:55.847Z,76.22
2018-03-26T01:33:25.009Z,64.62
2018-03-26T01:35:54.097Z,63.22
2018-03-26T01:38:23.337Z,80.25
2018-03-26T01:40:52.267Z,72.78
2018-03-26T01:43:21.557Z,66.12
2018-03-26T01:45:50.650Z,65.82
2018-03-26T01:48:19.896Z,66.18
2018-03-26T01:50:48.946Z,63.05
2018-03-26T01:53:18.051Z,68.07
2018-03-26T01:55:47.231Z,66.00
2018-03-26T01:58:16.259Z,75.72
2018-03-26T02:00:45.370Z,68.97
2018-03-26T02:03:14.608Z,68.87
2018-03-26T02:05:43.661Z,73.97
2018-03-26T02:08:13.729Z,69.07
2018-03-26T02:10:42.774Z,60.47
2018-03-26T02:13:11.865Z,63.80
2018-03-26T02:15:40.997Z,79.45
2018-03-26T02:18:10.339Z,63.97
2018-03-26T02:20:39.324Z,73.60
2018-03-26T02:23:08.438Z,74.45
2018-03-26T02:25:37.763Z,80.70
2018-03-26T02:28:07.003Z,81.12
2018-03-26T02:30:36.000Z,81.78
2018-03-26T02:33:05.298Z,83.78
2018-03-26T02:35:34.441Z,76.62
2018-03-26T02:38:03.653Z,77.97
2018-03-26T02:40:32.852Z,76.15
2018-03-26T02:43:01.979Z,75.53
2018-03-26T02:45:31.152Z,72.37
2018-03-26T02:48:00.292Z,70.40
2018-03-26T02:50:29.299Z,75.20
2018-03-26T02:52:58.449Z,72.15
2018-03-26T02:55:27.414Z,74.22
2018-03-26T02:57:56.831Z,84.32
2018-03-26T03:00:26.127Z,72.43
2018-03-26T03:02:55.107Z,81.47
2018-03-26T03:05:24.060Z,78.90
2018-03-26T03:07:53.055Z,95.70
2018-03-26T03:10:21.983Z,81.75
2018-03-26T03:12:50.970Z,76.72
2018-03-26T03:15:20.098Z,83.68
2018-03-26T03:17:49.177Z,77.82
2018-03-26T03:20:18.276Z,75.70
2018-03-26T03:22:47.509Z,72.60
2018-03-26T03:25:16.713Z,83.82
2018-03-26T03:27:45.869Z,69.22
2018-03-26T03:30:14.956Z,80.85
2018-03-26T03:32:43.966Z,72.12
2018-03-26T03:35:12.978Z,67.87
2018-03-26T03:37:42.159Z,66.12
2018-03-26T03:40:11.293Z,65.47
2018-03-26T03:42:40.442Z,65.35
2018-03-26T03:45:09.454Z,68.40
2018-03-26T03:47:38.443Z,67.25
2018-03-26T03:50:07.653Z,65.07
2018-03-26T03:52:36.866Z,72.80
2018-03-26T03:55:05.845Z,68.35
2018-03-26T03:57:34.779Z,76.32
2018-03-26T04:00:03.898Z,73.12
2018-03-26T04:02:32.942Z,72.78
2018-03-26T04:05:02.070Z,78.62
2018-03-26T04:07:31.190Z,78.53
2018-03-26T04:10:00.144Z,92.32
2018-03-26T04:12:29.271Z,83.00
2018-03-26T04:14:58.422Z,80.05
2018-03-26T04:17:27.537Z,90.70
2018-03-26T04:19:56.522Z,101.62
2018-03-26T04:22:25.678Z,96.20
2018-03-26T04:24:54.782Z,97.68
2018-03-26T04:27:23.921Z,103.05
2018-03-26T04:29:52.946Z,119.50
2018-03-26T04:32:22.010Z,99.80
2018-03-26T04:34:51.205Z,112.55
2018-03-26T04:37:20.165Z,112.18
2018-03-26T04:39:49.248Z,105.68
2018-03-26T04:42:18.242Z,98.45
2018-03-26T04:44:47.157Z,103.32
2018-03-26T04:47:16.165Z,97.95
2018-03-26T04:49:45.167Z,104.72
2018-03-26T04:52:14.371Z,98.32
2018-03-26T04:54:43.593Z,105.35
2018-03-26T04:57:12.671Z,94.72
2018-03-26T04:59:41.971Z,102.40
2018-03-26T05:02:11.136Z,113.60
2018-03-26T05:04:40.112Z,106.20
2018-03-26T05:07:09.247Z,99.25
2018-03-26T05:09:38.237Z,102.30
2018-03-26T05:12:07.281Z,98.70
2018-03-26T05:14:36.481Z,102.78
2018-03-26T05:17:05.691Z,97.00
2018-03-26T05:19:34.783Z,97.40
2018-03-26T05:22:03.919Z,106.40
2018-03-26T05:24:33.069Z,102.32
2018-03-26T05:27:02.014Z,118.13
2018-03-26T05:29:31.213Z,81.72
2018-03-26T05:32:00.357Z,107.55
2018-03-26T05:34:29.918Z,104.30
2018-03-26T05:36:59.230Z,134.25
2018-03-26T05:39:28.361Z,120.37
2018-03-26T05:41:57.386Z,146.40
2018-03-26T05:44:26.720Z,121.68
2018-03-26T05:46:55.847Z,118.20
2018-03-26T05:49:24.853Z,126.75
2018-03-26T05:51:53.891Z,148.13
2018-03-26T05:54:22.942Z,139.23
2018-03-26T05:56:51.929Z,113.60
2018-03-26T05:59:21.125Z,113.65
2018-03-26T06:01:50.229Z,152.40
2018-03-26T06:04:19.827Z,113.18
2018-03-26T06:06:48.935Z,127.38
2018-03-26T06:09:18.182Z,139.65
2018-03-26T06:11:48.250Z,123.43
2018-03-26T06:14:17.241Z,126.35
2018-03-26T06:16:57.831Z,107.72
2018-03-26T06:19:26.801Z,119.85
2018-03-26T06:21:56.038Z,96.10
2018-03-26T06:24:24.991Z,108.18
2018-03-26T06:26:53.986Z,94.32
2018-03-26T06:29:23.059Z,118.95
2018-03-26T06:31:52.024Z,115.45
2018-03-26T06:34:20.935Z,130.05
2018-03-26T06:39:55.641Z,124.53
2018-03-26T06:42:24.871Z,125.55
2018-03-26T06:44:53.934Z,134.77
2018-03-26T06:47:23.317Z,117.37
2018-03-26T06:49:52.531Z,116.53
2018-03-26T06:52:21.694Z,121.68
2018-03-26T06:54:50.846Z,130.18
2018-03-26T06:57:19.909Z,128.38
2018-03-26T06:59:49.327Z,125.18
2018-03-26T07:02:18.405Z,127.72
2018-03-26T07:04:47.953Z,139.15
2018-03-26T07:07:17.122Z,117.05
2018-03-26T07:09:46.247Z,122.15
2018-03-26T07:12:15.350Z,133.40
2018-03-26T07:14:44.586Z,226.88
2018-03-26T07:17:13.947Z,129.05
2018-03-26T07:19:43.055Z,119.35
2018-03-26T07:22:12.813Z,142.15
2018-03-26T07:24:41.915Z,114.72
2018-03-26T07:27:10.994Z,146.98
2018-03-26T07:29:40.229Z,108.28
2018-03-26T07:32:09.308Z,140.50
2018-03-26T07:34:38.271Z,114.40
2018-03-26T07:37:07.341Z,132.48
2018-03-26T07:39:37.077Z,125.25
2018-03-26T07:42:06.157Z,115.43
2018-03-26T07:44:35.335Z,111.20
2018-03-26T07:47:04.574Z,108.70
2018-03-26T07:49:33.834Z,106.57
2018-03-26T07:52:02.795Z,147.20
2018-03-26T07:54:31.945Z,102.30
2018-03-26T07:57:01.350Z,107.60
2018-03-26T07:59:30.295Z,102.25
2018-03-26T08:01:59.514Z,107.22
2018-03-26T08:04:28.790Z,104.18
2018-03-26T08:06:57.987Z,97.07
2018-03-26T08:09:27.028Z,110.75
2018-03-26T08:11:57.069Z,108.50
2018-03-26T08:14:26.339Z,98.55
2018-03-26T08:16:55.514Z,106.43
2018-03-26T08:19:24.510Z,83.57
2018-03-26T08:21:54.026Z,146.25
2018-03-26T08:24:23.531Z,83.53
2018-03-26T08:26:52.957Z,104.97
2018-03-26T08:29:22.245Z,94.40
2018-03-26T08:31:51.914Z,102.97
2018-03-26T08:34:21.307Z,140.93
2018-03-26T08:36:50.647Z,115.62
2018-03-26T08:39:19.793Z,116.53
2018-03-26T08:41:49.142Z,121.25
2018-03-26T08:44:18.267Z,136.62
2018-03-26T08:46:47.442Z,139.12
2018-03-26T08:49:16.409Z,107.97
2018-03-26T08:51:45.631Z,74.18
2018-03-26T08:54:14.642Z,124.38
2018-03-26T08:56:43.645Z,89.63
2018-03-26T08:59:12.837Z,99.85
2018-03-26T09:01:42.320Z,89.37
2018-03-26T09:04:11.582Z,118.80
2018-03-26T09:06:40.783Z,131.50
2018-03-26T09:09:09.920Z,123.03
2018-03-26T09:11:39.166Z,83.50
2018-03-26T09:14:08.411Z,98.55
2018-03-26T09:16:37.485Z,112.87
2018-03-26T09:19:06.665Z,107.10
2018-03-26T09:21:35.900Z,112.95
2018-03-26T09:24:05.067Z,111.75
2018-03-26T09:26:34.170Z,94.28
2018-03-26T09:29:03.302Z,89.95
2018-03-26T09:31:32.705Z,94.32
2018-03-26T09:34:01.728Z,104.00
2018-03-26T09:36:30.837Z,115.12
2018-03-26T09:38:59.900Z,128.45
2018-03-26T09:41:29.243Z,76.70
2018-03-26T09:43:58.599Z,93.95
2018-03-26T09:46:27.787Z,97.50
2018-03-26T09:48:56.970Z,95.75
2018-03-26T09:51:26.442Z,105.30
2018-03-26T09:53:55.475Z,137.27
2018-03-26T09:56:24.619Z,138.48
2018-03-26T09:58:53.782Z,99.90
2018-03-26T10:01:22.957Z,70.80
2018-03-26T10:03:52.241Z,110.82
2018-03-26T10:06:21.430Z,76.07
2018-03-26T10:08:50.517Z,104.43
2018-03-26T10:11:19.681Z,82.75
2018-03-26T10:13:48.969Z,110.25
2018-03-26T10:16:18.378Z,121.75
2018-03-26T10:18:47.395Z,129.15
2018-03-26T10:21:16.631Z,108.32
2018-03-26T10:23:45.687Z,124.68
2018-03-26T10:26:14.943Z,109.53
2018-03-26T10:28:44.125Z,104.55
2018-03-26T10:31:13.421Z,130.50
2018-03-26T10:33:43.483Z,115.40
2018-03-26T10:36:12.722Z,94.35
2018-03-26T10:38:41.926Z,85.78
2018-03-26T10:41:11.218Z,87.12
2018-03-26T10:43:40.522Z,77.80
2018-03-26T10:46:09.771Z,66.47
2018-03-26T10:48:38.913Z,54.78
2018-03-26T10:51:08.024Z,47.33
2018-03-26T10:53:37.119Z,40.97
2018-03-26T10:56:06.472Z,51.30
2018-03-26T10:58:35.870Z,41.27
2018-03-26T11:01:05.205Z,46.90
2018-03-26T11:03:34.458Z,37.00
2018-03-26T11:06:03.617Z,41.20
2018-03-26T11:08:32.768Z,42.83
2018-03-26T11:11:02.023Z,47.93
2018-03-26T11:13:31.293Z,38.27
2018-03-26T11:16:01.165Z,44.27
2018-03-26T11:18:30.245Z,54.07
2018-03-26T11:20:59.407Z,43.20
2018-03-26T11:23:28.655Z,40.73
2018-03-26T11:25:58.129Z,36.87
2018-03-26T11:28:27.280Z,39.13
2018-03-26T11:30:56.477Z,34.80
2018-03-26T11:33:25.674Z,43.37
2018-03-26T11:35:54.726Z,47.47
2018-03-26T11:38:24.392Z,38.47
2018-03-26T11:40:53.515Z,34.73
2018-03-26T11:43:22.706Z,34.20
2018-03-26T11:45:51.955Z,40.73
2018-03-26T11:48:21.170Z,36.47
2018-03-26T11:50:50.234Z,36.23
2018-03-26T11:53:19.514Z,36.10
2018-03-26T11:55:48.768Z,26.80
2018-03-26T11:58:18.119Z,29.90
2018-03-26T12:00:47.613Z,33.47
2018-03-26T12:03:16.919Z,26.50
2018-03-26T12:05:46.170Z,26.43
2018-03-26T12:08:15.458Z,25.90
2018-03-26T12:10:44.649Z,23.80
2018-03-26T12:13:13.917Z,17.63
2018-03-26T12:15:43.217Z,19.30
2018-03-26T12:18:12.360Z,17.77
2018-03-26T12:20:53.184Z,17.30
2018-03-26T12:23:33.745Z,21.90
2018-03-26T12:26:02.599Z,28.63
2018-03-26T12:28:43.107Z,13.63
2018-03-26T12:31:12.125Z,14.70
2018-03-26T12:33:52.702Z,13.53
2018-03-26T12:36:21.948Z,12.90
2018-03-26T12:38:51.277Z,13.63
2018-03-26T12:41:20.606Z,12.63
2018-03-26T12:43:49.946Z,13.93
2018-03-26T12:46:30.497Z,20.23
2018-03-26T12:48:59.547Z,11.40
2018-03-26T12:51:40.175Z,13.43
2018-03-26T12:54:09.290Z,15.67
2018-03-26T12:56:38.548Z,116.13
2018-03-26T12:59:07.814Z,86.33
2018-03-26T13:01:48.624Z,17.23
2018-03-26T13:04:17.587Z,15.30
2018-03-26T13:06:47.006Z,17.37
2018-03-26T13:09:16.222Z,14.40
2018-03-26T13:11:45.402Z,18.40
2018-03-26T13:14:14.625Z,18.57
2018-03-26T13:16:43.847Z,17.80
2018-03-26T13:19:12.971Z,11.37
2018-03-26T13:21:42.343Z,18.43
2018-03-26T13:24:11.718Z,17.70
2018-03-26T13:26:40.845Z,18.70
2018-03-26T13:29:10.231Z,20.37
2018-03-26T13:31:39.342Z,20.60
2018-03-26T13:34:08.601Z,21.23
2018-03-26T13:36:37.880Z,22.33
2018-03-26T13:39:07.323Z,29.80
2018-03-26T13:41:36.642Z,37.33
2018-03-26T13:44:06.026Z,33.37
2018-03-26T13:46:36.253Z,25.03
2018-03-26T13:49:05.717Z,30.60
2018-03-26T13:51:34.867Z,31.93
2018-03-26T13:54:04.267Z,24.20
2018-03-26T13:56:33.643Z,26.17
2018-03-26T13:59:02.914Z,20.67
2018-03-26T14:01:32.491Z,23.90
2018-03-26T14:04:01.839Z,26.20
2018-03-26T14:06:31.015Z,29.30
2018-03-26T14:12:16.572Z,26.17
2018-03-26T14:14:57.141Z,29.33
2018-03-26T14:17:38.214Z,28.90
2018-03-26T14:20:07.573Z,27.80
2018-03-26T14:22:36.743Z,18.73
2018-03-26T14:25:06.079Z,18.70
2018-03-26T14:27:35.279Z,20.50
2018-03-26T14:30:04.804Z,25.80
2018-03-26T14:32:34.098Z,24.03
2018-03-26T14:35:14.621Z,22.90
2018-03-26T14:37:44.190Z,18.30
2018-03-26T14:40:13.669Z,24.77
2018-03-26T14:42:43.058Z,18.00
2018-03-26T14:45:12.511Z,23.77
2018-03-26T14:47:41.805Z,17.90
2018-03-26T14:50:11.891Z,16.07
2018-03-26T14:52:41.364Z,19.67
2018-03-26T14:55:10.629Z,17.53
2018-03-26T14:57:39.833Z,20.80
2018-03-26T15:00:09.131Z,17.80
2018-03-26T15:02:38.394Z,16.30
2018-03-26T15:05:07.751Z,11.33
2018-03-26T15:07:36.977Z,14.63
2018-03-26T15:10:06.331Z,12.63
2018-03-26T15:12:35.841Z,10.27
2018-03-26T15:15:05.032Z,13.90
2018-03-26T15:17:34.290Z,12.03
2018-03-26T15:20:03.620Z,15.20
2018-03-26T15:22:32.981Z,12.67
2018-03-26T15:25:02.241Z,15.47
2018-03-26T15:27:31.502Z,21.63
2018-03-26T15:30:00.751Z,22.57
2018-03-26T15:32:30.178Z,35.40
2018-03-26T15:34:59.405Z,27.37
2018-03-26T15:37:29.152Z,24.63
2018-03-26T15:39:58.546Z,16.03
2018-03-26T15:42:27.900Z,14.97
2018-03-26T15:44:57.246Z,27.70
2018-03-26T15:47:26.388Z,25.87
2018-03-26T15:49:55.527Z,28.00
2018-03-26T15:52:24.640Z,32.13
2018-03-26T15:54:53.933Z,26.07
2018-03-26T15:57:23.075Z,23.43
2018-03-26T15:59:52.247Z,18.33
2018-03-26T16:02:21.490Z,25.13
2018-03-26T16:04:50.619Z,28.23
2018-03-26T16:07:19.820Z,20.70
2018-03-26T16:09:48.986Z,23.10
2018-03-26T16:12:18.152Z,38.53
2018-03-26T16:14:47.533Z,31.10
2018-03-26T16:17:16.629Z,47.23
2018-03-26T16:19:45.779Z,33.33
2018-03-26T16:22:14.925Z,38.63
2018-03-26T16:24:44.121Z,81.73
2018-03-26T16:27:13.510Z,53.57
2018-03-26T16:29:42.702Z,55.10
2018-03-26T16:32:12.009Z,63.67
2018-03-26T16:34:41.118Z,62.93
2018-03-26T16:37:10.418Z,57.00
2018-03-26T16:39:39.802Z,48.60
2018-03-26T16:42:27.880Z,41.90
2018-03-26T16:44:56.860Z,46.47
2018-03-26T16:47:26.284Z,31.83
2018-03-26T16:49:55.554Z,39.50
2018-03-26T16:52:24.671Z,39.53
2018-03-26T16:54:53.983Z,42.33
2018-03-26T16:57:23.103Z,42.70
2018-03-26T16:59:52.230Z,28.63
2018-03-26T17:02:21.582Z,39.77
2018-03-26T17:04:50.858Z,42.67
2018-03-26T17:07:19.929Z,38.97
2018-03-26T17:09:49.380Z,44.47
2018-03-26T17:12:18.598Z,42.53
2018-03-26T17:14:47.677Z,39.60
2018-03-26T17:17:16.757Z,42.17
2018-03-26T17:19:46.005Z,46.85
2018-03-26T17:22:15.296Z,30.33
2018-03-26T17:24:44.435Z,34.23
2018-03-26T17:27:13.645Z,36.55
2018-03-26T17:29:42.820Z,30.33
2018-03-26T17:32:11.828Z,29.33
2018-03-26T17:34:41.011Z,35.03
2018-03-26T17:37:10.206Z,43.47
2018-03-26T17:39:39.265Z,49.97
2018-03-26T17:42:08.696Z,33.03
2018-03-26T17:44:37.894Z,32.45
2018-03-26T17:47:07.124Z,30.43
2018-03-26T17:49:37.041Z,33.13
2018-03-26T17:52:06.099Z,32.42
2018-03-26T17:54:35.442Z,28.20
2018-03-26T17:57:04.706Z,43.27
2018-03-26T17:59:33.828Z,26.93
2018-03-26T18:02:02.954Z,28.07
2018-03-26T18:04:32.177Z,27.07
2018-03-26T18:07:04.712Z,30.40
2018-03-26T18:09:33.980Z,28.42
2018-03-26T18:12:03.066Z,35.03
2018-03-26T18:14:32.155Z,34.20
2018-03-26T18:17:01.347Z,31.00
2018-03-26T18:19:30.454Z,35.13
2018-03-26T18:21:59.905Z,30.50
2018-03-26T18:24:29.191Z,30.95
2018-03-26T18:26:58.521Z,34.13
2018-03-26T18:29:27.950Z,36.88
2018-03-26T18:31:57.300Z,32.47
2018-03-26T18:34:26.329Z,34.13
2018-03-26T18:36:55.450Z,37.05
2018-03-26T18:39:24.615Z,34.13
2018-03-26T18:41:53.799Z,35.17
2018-03-26T18:44:23.188Z,28.83
2018-03-26T18:46:52.263Z,28.83
2018-03-26T18:49:21.441Z,44.77
2018-03-26T18:51:50.509Z,87.40
2018-03-26T18:54:19.802Z,30.40
2018-03-26T18:56:49.018Z,27.17
2018-03-26T18:59:18.134Z,33.83
2018-03-26T19:01:47.403Z,33.27
2018-03-26T19:04:17.091Z,30.90
2018-03-26T19:06:46.193Z,31.83
2018-03-26T19:09:15.394Z,31.02
2018-03-26T19:11:44.476Z,31.33
2018-03-26T19:14:13.595Z,30.45
2018-03-26T19:16:42.731Z,36.40
2018-03-26T19:19:11.805Z,46.73
2018-03-26T19:21:40.991Z,35.47
2018-03-26T19:24:10.073Z,34.03
2018-03-26T19:26:39.287Z,33.88
2018-03-26T19:29:08.460Z,53.10
2018-03-26T19:31:37.595Z,47.20
2018-03-26T19:34:06.681Z,55.45
2018-03-26T19:36:35.788Z,48.97
2018-03-26T19:39:06.942Z,71.32
2018-03-26T19:41:36.009Z,43.58
2018-03-26T19:44:05.175Z,38.45
2018-03-26T19:46:34.221Z,41.55
2018-03-26T19:49:03.313Z,47.78
2018-03-26T19:51:32.411Z,46.88
2018-03-26T19:54:01.514Z,58.72
2018-03-26T19:56:30.531Z,67.75
2018-03-26T19:58:59.698Z,49.55
2018-03-26T20:01:28.972Z,58.78
2018-03-26T20:03:58.193Z,47.38
2018-03-26T20:06:27.415Z,58.20
2018-03-26T20:08:56.541Z,52.67
2018-03-26T20:11:25.726Z,63.83
2018-03-26T20:13:54.750Z,59.20
2018-03-26T20:16:23.837Z,62.75
2018-03-26T20:18:53.019Z,58.13
2018-03-26T20:21:22.381Z,65.90
2018-03-26T20:23:51.650Z,53.25
2018-03-26T20:26:20.661Z,48.78
2018-03-26T20:28:49.773Z,58.65
2018-03-26T20:31:18.980Z,53.03
2018-03-26T20:33:48.143Z,57.70
2018-03-26T20:36:17.223Z,70.03
2018-03-26T20:38:46.511Z,61.78
2018-03-26T20:41:15.667Z,66.25
2018-03-26T20:43:45.214Z,47.65
2018-03-26T20:46:14.573Z,49.67
2018-03-26T20:48:43.897Z,52.40
2018-03-26T20:51:13.145Z,41.72
2018-03-26T20:53:42.329Z,52.25
2018-03-26T20:56:11.495Z,50.20
2018-03-26T20:58:40.671Z,44.42
2018-03-26T21:01:09.981Z,44.25
2018-03-26T21:03:39.087Z,49.47
2018-03-26T21:06:08.336Z,37.88
2018-03-26T21:08:37.499Z,44.15
2018-03-26T21:11:06.789Z,44.58
2018-03-26T21:13:35.936Z,35.38
2018-03-26T21:16:05.179Z,40.78
2018-03-26T21:18:34.378Z,54.30
2018-03-26T21:21:03.666Z,40.70
2018-03-26T21:23:32.779Z,40.15
2018-03-26T21:26:02.067Z,39.80
2018-03-26T21:28:31.230Z,44.88
2018-03-26T21:31:00.360Z,39.67
2018-03-26T21:33:29.645Z,33.47
2018-03-26T21:35:58.887Z,37.17
2018-03-26T21:38:27.909Z,33.45
2018-03-26T21:40:57.011Z,41.33
2018-03-26T21:43:26.182Z,37.60
2018-03-26T21:45:55.339Z,34.58
2018-03-26T21:48:24.945Z,34.63
2018-03-26T21:50:54.190Z,32.40
2018-03-26T21:53:23.475Z,34.13
2018-03-26T21:55:52.553Z,33.67
2018-03-26T21:58:21.645Z,33.78
2018-03-26T22:00:50.757Z,32.45
2018-03-26T22:03:19.790Z,29.12
2018-03-26T22:05:48.927Z,32.23
2018-03-26T22:08:18.065Z,29.73
2018-03-26T22:10:47.069Z,35.28
2018-03-26T22:13:16.151Z,37.08
2018-03-26T22:15:45.221Z,29.90
2018-03-26T22:18:14.331Z,36.97
2018-03-26T22:20:43.548Z,31.13
2018-03-26T22:23:12.734Z,29.43
2018-03-26T22:25:41.811Z,36.28
2018-03-26T22:28:11.159Z,35.15
2018-03-26T22:30:40.534Z,37.80
2018-03-26T22:33:09.619Z,45.40
2018-03-26T22:35:38.761Z,43.25
2018-03-26T22:38:07.853Z,53.97
2018-03-26T22:40:37.209Z,47.05
2018-03-26T22:43:06.527Z,54.13
2018-03-26T22:45:35.951Z,39.30
2018-03-26T22:48:05.118Z,37.70
2018-03-26T22:50:34.551Z,36.27
2018-03-26T22:53:03.986Z,33.33
2018-03-26T22:55:33.256Z,38.23
2018-03-26T22:58:02.550Z,173.90
2018-03-26T23:00:31.985Z,36.58
2018-03-26T23:03:01.436Z,37.33
2018-03-26T23:05:31.724Z,31.23
2018-03-26T23:08:00.993Z,41.97
2018-03-26T23:10:30.495Z,54.90
2018-03-26T23:12:59.897Z,41.58
2018-03-26T23:15:29.008Z,54.03
2018-03-26T23:17:58.125Z,56.33
2018-03-26T23:20:27.165Z,56.37
2018-03-26T23:22:56.376Z,59.73
2018-03-26T23:25:25.627Z,51.63
2018-03-26T23:27:54.821Z,48.43
2018-03-26T23:30:23.966Z,61.75
2018-03-26T23:32:53.333Z,59.28
2018-03-26T23:35:22.367Z,55.87
2018-03-26T23:37:51.655Z,48.30
2018-03-26T23:40:20.673Z,52.63
2018-03-26T23:42:49.891Z,59.60
2018-03-26T23:45:19.387Z,47.20
2018-03-26T23:47:48.589Z,51.27
2018-03-26T23:50:17.866Z,51.40
2018-03-26T23:52:46.968Z,56.33
2018-03-26T23:55:16.106Z,47.43
2018-03-26T23:57:45.183Z,46.47
